Historique des mesures à Cassis (13260), France
Quotidien Résumé Aout 12, 2017 Unités:  Métrique    US   Métrique/US
« Précédent (Jour)
Suivant (Jour) »
Quotidien Hebdomadaire Mensuel Annuel Période au choix
  Maximum: Minimum: Moyenne:
Température: TemperatureC °C 17.0 °C 21.8 °C
Point de rosée: DewpointC °C 8.2 °C 9.5 °C
Humidité: Humidity % 34 % 44 %
Vitesse du vent: 0 km/h 4.2 km/h 22.5 km/h
Rafales: 0 km/h - -
Vent:- - SSW
Pression: PressurehPa hPa 1012.1 hPa -
Précipitations: 0.0 mm    
Historical Graphs
 
 
Mesures pour : Aout 12, 2017
Heure Temperature Point de rosée Pression Vent Vitesse du vent Rafales Humidité Pluie (par heure) Conditions
TemperatureC °C DewpointC °C PressurehPa hPa Calm     Humidity % HourlyPrecipMM mm SoftwareType W/m2
00:11 20.2 °C 8.2 °C 1013.4 hPa NNE 8 km/h 25.4 km/h 46 % 0.0 mm open2300-1.11 W/m2
01:11 19.4 °C 8.8 °C 1013.1 hPa NW 37.5 km/h 37.5 km/h 50 % 0.0 mm open2300-1.11 W/m2
02:11 18.9 °C 8.8 °C 1012.8 hPa North 30.7 km/h 40.7 km/h 52 % 0.0 mm open2300-1.11 W/m2
03:11 18.4 °C 9.4 °C 1012.8 hPa NNW 21.6 km/h 53.9 km/h 56 % 0.0 mm open2300-1.11 W/m2
04:11 18.1 °C 9.4 °C 1012.8 hPa NW 26.7 km/h 26.7 km/h 57 % 0.0 mm open2300-1.11 W/m2
05:11 17.8 °C 9.7 °C 1012.4 hPa ENE 17.9 km/h 37.5 km/h 59 % 0.0 mm open2300-1.11 W/m2
06:11 17.6 °C 10.0 °C 1012.8 hPa NNE 21.6 km/h 25.4 km/h 61 % 0.0 mm open2300-1.11 W/m2
07:11 17.0 °C 10.1 °C 1013.1 hPa NNE 26.7 km/h 40.7 km/h 64 % 0.0 mm open2300-1.11 W/m2
08:11 19.9 °C 11.1 °C 1012.8 hPa NW 39.4 km/h 39.4 km/h 57 % 0.0 mm open2300-1.11 W/m2
09:11 18.9 °C 10.2 °C 1012.8 hPa WNW 52 km/h 57.3 km/h 57 % 0.0 mm open2300-1.11 W/m2
10:11 20.1 °C 9.9 °C 1013.4 hPa NW 35.2 km/h 36 km/h 52 % 0.0 mm open2300-1.11 W/m2
11:11 22.5 °C 9.9 °C 1013.4 hPa North 19.6 km/h 23 km/h 45 % 0.0 mm open2300-1.11 W/m2
12:11 24.1 °C 10.4 °C 1013.4 hPa NW 36.5 km/h 36.5 km/h 42 % 0.0 mm open2300-1.11 W/m2
13:11 25.4 °C 10.4 °C 1013.1 hPa NNW 17.4 km/h 24.8 km/h 39 % 0.0 mm open2300-1.11 W/m2
14:11 26.4 °C 10.9 °C 1012.8 hPa NW 19.6 km/h 23 km/h 38 % 0.0 mm open2300-1.11 W/m2
15:11 27.2 °C 10.7 °C 1012.8 hPa WNW 34.1 km/h 34.1 km/h 36 % 0.0 mm open2300-1.11 W/m2
16:11 27.7 °C 11.2 °C 1012.4 hPa WNW 30.7 km/h 39.9 km/h 36 % 0.0 mm open2300-1.11 W/m2
17:11 28.0 °C 11.4 °C 1012.4 hPa North 7.6 km/h 50.5 km/h 36 % 0.0 mm open2300-1.11 W/m2
18:11 28.1 °C 10.7 °C 1012.1 hPa NNW 26.2 km/h 50.5 km/h 34 % 0.0 mm open2300-1.11 W/m2
19:11 27.8 °C 10.4 °C 1012.1 hPa ESE 4.2 km/h 9.3 km/h 34 % 0.0 mm open2300-1.11 W/m2
20:11 26.6 °C 9.3 °C 1012.1 hPa NNW 6.9 km/h 16.3 km/h 34 % 0.0 mm open2300-1.11 W/m2
21:11 25.6 °C 8.9 °C 1012.8 hPa North 23.8 km/h 27.7 km/h 35 % 0.0 mm open2300-1.11 W/m2
22:11 24.8 °C 8.6 °C 1013.1 hPa NNW 9.3 km/h 17.4 km/h 36 % 0.0 mm open2300-1.11 W/m2
23:11 24.1 °C 9.3 °C 1012.8 hPa NNW 8 km/h 17.9 km/h 39 % 0.0 mm open2300-1.11 W/m2
Observations météo à CASSIS
WU-History script by Weather Underground - 1 mb